Terminal Aerodrome Forecast
Issued by NWS Blacksburg, VA

Home | Current Version | Previous Version | Text Only | Print | Product List | Glossary On
Versions: 1 2 3 4 5 6 7 8 9 10 11 12 13 14 15 16 17 18 19 20 21 22 23 24 25 26 27 28 29 30
000
FTUS41 KRNK 050824 AAA
TAFDAN
TAF AMD
KDAN 050824Z 0508/0606 00000KT 6SM BR SCT003 OVC025
      TEMPO 0508/0512 4SM -DZ BR OVC003
     FM051300 32004KT P6SM SCT020 OVC250
     FM051500 33006KT P6SM OVC250
     FM052300 03005KT P6SM SCT150 OVC250=

USA.gov is the U.S. government's official web portal to all federal, state and local government web resources and services.